Time;durP1;ratioP1;P1;durP2;ratioP2;P2;SDS_P1;SDS_P2;PMS_P1;PMS_P2;Temp;Humidity;BMP_temperature;BMP_pressure;BME280_temperature;BME280_humidity;BME280_pressure;Samples;Min_cycle;Max_cycle;Signal;HPM_P1;HPM_P2
2024/03/01 00:00:01;;;;;;;4.45;2.65;;;9.50;91.60;;;;;;5094814;28;20027;-30
2024/03/01 00:02:26;;;;;;;3.60;2.85;;;9.50;91.50;;;;;;5094592;28;20036;-33
2024/03/01 00:04:52;;;;;;;4.15;2.85;;;9.50;91.50;;;;;;5094204;28;20052;-30
2024/03/01 00:07:18;;;;;;;6.72;3.40;;;9.50;91.60;;;;;;5094178;28;20035;-31
2024/03/01 00:09:43;;;;;;;3.90;3.05;;;9.50;91.50;;;;;;5094773;28;20069;-30
2024/03/01 00:12:10;;;;;;;4.30;3.20;;;9.50;91.50;;;;;;5094437;28;20477;-30
2024/03/01 00:14:36;;;;;;;4.68;3.20;;;9.50;91.40;;;;;;5093013;28;20031;-30
2024/03/01 00:17:02;;;;;;;5.30;3.38;;;9.50;91.40;;;;;;5094320;28;20028;-37
2024/03/01 00:19:28;;;;;;;4.40;3.13;;;9.40;91.30;;;;;;5094293;28;20154;-31
2024/03/01 00:21:53;;;;;;;4.53;3.60;;;9.50;91.30;;;;;;5093442;28;20027;-31
2024/03/01 00:24:19;;;;;;;4.80;3.08;;;9.50;91.20;;;;;;5094059;28;20026;-31
2024/03/01 00:26:45;;;;;;;4.95;3.33;;;9.50;91.30;;;;;;5094173;28;20035;-34
2024/03/01 00:29:11;;;;;;;7.10;3.40;;;9.50;91.30;;;;;;5094483;28;20028;-32
2024/03/01 00:31:37;;;;;;;6.05;3.33;;;9.50;91.20;;;;;;5094145;28;20414;-31
2024/03/01 00:34:02;;;;;;;4.82;3.15;;;9.50;91.20;;;;;;5093872;28;20044;-32
2024/03/01 00:36:28;;;;;;;4.70;3.60;;;9.50;91.10;;;;;;5094249;28;20647;-35
2024/03/01 00:38:54;;;;;;;5.38;3.38;;;9.50;91.10;;;;;;5094108;28;20365;-31
2024/03/01 00:41:19;;;;;;;4.70;3.38;;;9.50;91.10;;;;;;5094068;28;20020;-30
2024/03/01 00:43:45;;;;;;;4.40;3.22;;;9.50;91.10;;;;;;5093814;28;20403;-34
2024/03/01 00:46:11;;;;;;;4.20;3.22;;;9.50;91.10;;;;;;5093685;28;20496;-31
2024/03/01 00:48:36;;;;;;;4.70;3.80;;;9.50;91.00;;;;;;5093742;28;20035;-30
2024/03/01 00:51:02;;;;;;;4.93;3.40;;;9.50;91.00;;;;;;5094077;28;20016;-29
2024/03/01 00:53:28;;;;;;;6.18;4.00;;;9.50;90.90;;;;;;5094085;28;20438;-30
2024/03/01 00:55:54;;;;;;;5.28;3.88;;;9.50;90.80;;;;;;5093938;28;20038;-30
2024/03/01 00:58:19;;;;;;;4.40;3.55;;;9.50;90.70;;;;;;5093802;28;20016;-30
2024/03/01 01:00:45;;;;;;;7.35;3.80;;;9.50;90.70;;;;;;5093892;28;20035;-30
2024/03/01 01:03:10;;;;;;;4.85;3.50;;;9.50;90.80;;;;;;5093288;28;20492;-33
2024/03/01 01:05:36;;;;;;;5.93;3.67;;;9.50;90.80;;;;;;5093353;28;20024;-31
2024/03/01 01:08:01;;;;;;;5.70;4.10;;;9.50;90.80;;;;;;5093038;28;20476;-30
2024/03/01 01:10:28;;;;;;;5.82;3.80;;;9.50;90.80;;;;;;5093129;28;20079;-32
2024/03/01 01:12:54;;;;;;;5.80;3.70;;;9.50;90.70;;;;;;5093370;28;20426;-31
2024/03/01 01:15:20;;;;;;;5.78;3.75;;;9.50;90.70;;;;;;5093145;28;20057;-35
2024/03/01 01:17:46;;;;;;;5.55;3.72;;;9.50;90.70;;;;;;5093028;28;20028;-30
2024/03/01 01:20:12;;;;;;;4.82;3.80;;;9.50;90.60;;;;;;5093067;28;20107;-33
2024/03/01 01:22:38;;;;;;;7.72;4.30;;;9.50;90.50;;;;;;5093076;28;20059;-31
2024/03/01 01:25:06;;;;;;;5.78;4.07;;;9.50;90.40;;;;;;5092929;28;20515;-40
2024/03/01 01:27:31;;;;;;;7.18;4.43;;;9.50;90.50;;;;;;5092885;28;20020;-31
2024/03/01 01:29:57;;;;;;;6.68;4.40;;;9.50;90.50;;;;;;5092665;28;20066;-30
2024/03/01 01:32:23;;;;;;;6.80;4.10;;;9.50;90.40;;;;;;5091688;28;20028;-30
2024/03/01 01:34:49;;;;;;;5.22;3.85;;;9.50;90.30;;;;;;5092147;28;20036;-31
2024/03/01 01:37:15;;;;;;;5.78;4.13;;;9.50;90.30;;;;;;5092388;28;20035;-32
2024/03/01 01:39:41;;;;;;;5.47;4.25;;;9.50;90.30;;;;;;5092266;28;20020;-31
2024/03/01 01:42:07;;;;;;;5.97;4.10;;;9.50;90.30;;;;;;5092273;28;20032;-31
2024/03/01 01:44:32;;;;;;;6.18;4.10;;;9.50;90.40;;;;;;5092426;28;20016;-29
2024/03/01 01:46:58;;;;;;;8.05;4.32;;;9.50;90.30;;;;;;5091076;28;20024;-31
2024/03/01 01:49:26;;;;;;;5.10;3.88;;;9.50;90.30;;;;;;5093042;28;20048;-30
2024/03/01 01:51:52;;;;;;;6.22;4.32;;;9.50;90.20;;;;;;5092640;28;20073;-31
2024/03/01 01:54:18;;;;;;;5.30;3.53;;;9.50;90.40;;;;;;5092547;28;20392;-32
2024/03/01 01:56:44;;;;;;;6.50;3.75;;;9.60;90.50;;;;;;5092300;28;20098;-30
2024/03/01 01:59:13;;;;;;;5.07;3.95;;;9.50;90.60;;;;;;5092405;28;20058;-33
2024/03/01 02:01:39;;;;;;;6.68;3.97;;;9.50;90.60;;;;;;5092572;28;20027;-35
2024/03/01 02:04:05;;;;;;;5.15;3.47;;;9.50;90.60;;;;;;5092808;28;20031;-31
2024/03/01 02:06:30;;;;;;;5.35;4.00;;;9.50;90.60;;;;;;5092631;28;20505;-34
2024/03/01 02:08:56;;;;;;;5.82;3.90;;;9.50;90.50;;;;;;5092309;28;20040;-32
2024/03/01 02:11:24;;;;;;;6.15;4.13;;;9.50;90.50;;;;;;5092285;28;20074;-31
2024/03/01 02:13:54;;;;;;;7.50;4.65;;;9.50;90.40;;;;;;5092293;28;20502;-32
2024/03/01 02:16:20;;;;;;;6.30;4.20;;;9.50;90.40;;;;;;5092309;28;20502;-30
2024/03/01 02:18:47;;;;;;;8.27;4.15;;;9.40;90.30;;;;;;5092591;28;20134;-34
2024/03/01 02:21:14;;;;;;;5.80;4.20;;;9.40;90.30;;;;;;5092758;28;20095;-31
2024/03/01 02:23:40;;;;;;;7.57;4.00;;;9.40;90.60;;;;;;5091032;28;20028;-32
2024/03/01 02:26:06;;;;;;;6.57;4.57;;;9.40;90.30;;;;;;5092336;28;20418;-32
2024/03/01 02:28:32;;;;;;;6.72;4.43;;;9.40;90.30;;;;;;5092058;28;20093;-31
2024/03/01 02:30:58;;;;;;;5.15;4.30;;;9.40;90.30;;;;;;5092092;28;20402;-31
2024/03/01 02:33:24;;;;;;;6.25;4.30;;;9.50;90.30;;;;;;5092099;28;20021;-32
2024/03/01 02:35:50;;;;;;;5.63;4.03;;;9.50;90.20;;;;;;5091758;28;20443;-30
2024/03/01 02:38:15;;;;;;;6.10;4.20;;;9.40;90.20;;;;;;5092021;28;20031;-31
2024/03/01 02:40:42;;;;;;;5.95;3.90;;;9.40;90.20;;;;;;5092105;28;20461;-31
2024/03/01 02:43:07;;;;;;;6.90;4.10;;;9.40;90.30;;;;;;5090309;28;20108;-31
2024/03/01 02:45:36;;;;;;;5.18;3.95;;;9.40;90.40;;;;;;5095485;28;20107;-32
2024/03/01 02:48:03;;;;;;;5.85;4.05;;;9.40;90.50;;;;;;5095720;28;20032;-31
2024/03/01 02:50:29;;;;;;;6.90;4.75;;;9.40;90.60;;;;;;5096297;28;20490;-30
2024/03/01 02:52:54;;;;;;;5.70;4.50;;;9.40;90.60;;;;;;5095830;28;20091;-36
2024/03/01 02:55:20;;;;;;;5.47;4.25;;;9.40;90.60;;;;;;5095891;28;20403;-32
2024/03/01 02:57:50;;;;;;;7.32;4.70;;;9.30;90.50;;;;;;5096040;28;20024;-30
2024/03/01 03:00:19;;;;;;;5.90;4.45;;;9.30;90.60;;;;;;5096069;28;20099;-31
2024/03/01 03:02:44;;;;;;;6.38;4.68;;;9.30;90.70;;;;;;5095561;28;20041;-32
2024/03/01 03:05:10;;;;;;;7.10;4.93;;;9.20;90.70;;;;;;5095528;28;20024;-30
2024/03/01 03:07:37;;;;;;;6.93;4.78;;;9.20;90.90;;;;;;5095313;28;20024;-32
2024/03/01 03:10:03;;;;;;;7.07;4.20;;;9.20;91.00;;;;;;5095854;28;20413;-32
2024/03/01 03:12:29;;;;;;;6.05;4.45;;;9.20;91.10;;;;;;5094295;28;20024;-31
2024/03/01 03:14:55;;;;;;;6.35;4.82;;;9.10;91.10;;;;;;5095586;28;20020;-32
2024/03/01 03:17:22;;;;;;;7.82;5.32;;;9.10;91.10;;;;;;5095816;28;20049;-30
2024/03/01 03:19:51;;;;;;;8.40;5.30;;;9.10;91.10;;;;;;5095702;28;20157;-32
2024/03/01 03:22:17;;;;;;;8.82;5.50;;;9.10;91.00;;;;;;5095529;28;20157;-30
2024/03/01 03:24:42;;;;;;;8.30;5.70;;;9.00;90.90;;;;;;5095262;28;20495;-30
2024/03/01 03:27:08;;;;;;;8.93;6.10;;;9.00;90.80;;;;;;5095346;28;20024;-38
2024/03/01 03:29:35;;;;;;;8.32;5.63;;;8.90;90.80;;;;;;5095111;28;20027;-38
2024/03/01 03:32:00;;;;;;;8.68;5.63;;;8.80;90.70;;;;;;5095263;28;20028;-32
2024/03/01 03:34:26;;;;;;;8.88;5.53;;;8.80;90.70;;;;;;5094875;28;20396;-30
2024/03/01 03:36:52;;;;;;;8.25;5.88;;;8.80;90.70;;;;;;5093618;28;20111;-33
2024/03/01 03:39:17;;;;;;;10.57;5.97;;;8.80;90.70;;;;;;5093649;28;20028;-33
2024/03/01 03:41:43;;;;;;;8.15;5.57;;;8.70;90.70;;;;;;5095066;28;20369;-32
2024/03/01 03:44:09;;;;;;;8.07;5.82;;;8.80;90.70;;;;;;5094903;28;20016;-31
2024/03/01 03:46:37;;;;;;;9.50;5.60;;;8.80;90.70;;;;;;5094875;28;20039;-44
2024/03/01 03:49:07;;;;;;;7.78;5.78;;;8.80;90.60;;;;;;5094917;28;20473;-30
2024/03/01 03:51:33;;;;;;;8.38;5.65;;;8.80;90.50;;;;;;5094875;28;20027;-35
2024/03/01 03:53:58;;;;;;;8.07;5.82;;;8.90;90.50;;;;;;5094702;28;20381;-41
2024/03/01 03:56:24;;;;;;;8.00;5.50;;;8.90;90.50;;;;;;5093371;28;20066;-43
2024/03/01 03:58:51;;;;;;;8.40;5.60;;;8.90;90.40;;;;;;5094545;28;20024;-38
2024/03/01 04:01:19;;;;;;;9.38;5.82;;;8.90;90.40;;;;;;5094368;28;20028;-40
2024/03/01 04:03:45;;;;;;;10.75;6.10;;;8.90;90.40;;;;;;5094932;28;20036;-33
2024/03/01 04:06:11;;;;;;;10.02;6.30;;;8.90;90.30;;;;;;5094390;28;20380;-41
2024/03/01 04:08:37;;;;;;;9.57;5.72;;;8.90;90.40;;;;;;5094431;28;20027;-37
2024/03/01 04:11:05;;;;;;;7.82;5.68;;;8.90;90.40;;;;;;5094803;28;20457;-34
2024/03/01 04:13:34;;;;;;;9.43;5.95;;;9.00;90.40;;;;;;5093884;28;20081;-31
2024/03/01 04:16:00;;;;;;;7.00;5.18;;;9.00;90.40;;;;;;5094282;28;20023;-37
2024/03/01 04:18:28;;;;;;;9.00;5.75;;;9.00;90.40;;;;;;5093752;28;20362;-36
2024/03/01 04:20:57;;;;;;;8.45;5.57;;;9.10;90.40;;;;;;5093747;28;20052;-29
2024/03/01 04:23:26;;;;;;;7.68;5.78;;;9.10;90.30;;;;;;5094173;28;20065;-32
2024/03/01 04:25:53;;;;;;;8.77;5.13;;;9.10;90.30;;;;;;5093746;28;20031;-32
2024/03/01 04:28:21;;;;;;;6.68;4.90;;;9.10;90.30;;;;;;5093637;28;20024;-30
2024/03/01 04:30:48;;;;;;;7.00;4.85;;;9.10;90.30;;;;;;5093821;28;20028;-29
2024/03/01 04:33:13;;;;;;;6.53;4.85;;;9.10;90.30;;;;;;5093816;28;20399;-30
2024/03/01 04:35:39;;;;;;;7.57;5.40;;;9.20;90.30;;;;;;5093143;28;20036;-32
2024/03/01 04:38:08;;;;;;;5.80;4.63;;;9.20;90.30;;;;;;5093346;28;20536;-37
2024/03/01 04:40:34;;;;;;;4.22;3.47;;;9.20;90.30;;;;;;5093424;28;20533;-32
2024/03/01 04:43:00;;;;;;;4.53;3.80;;;9.20;90.50;;;;;;5093396;28;20021;-32
2024/03/01 04:45:26;;;;;;;3.42;2.80;;;9.30;90.60;;;;;;5093484;28;20028;-32
2024/03/01 04:47:52;;;;;;;3.63;3.13;;;9.30;90.70;;;;;;5093008;28;20027;-34
2024/03/01 04:50:18;;;;;;;3.47;3.17;;;9.30;91.10;;;;;;5091906;28;20117;-31
2024/03/01 04:52:44;;;;;;;3.47;3.17;;;9.20;91.10;;;;;;5093390;28;20020;-31
2024/03/01 04:55:09;;;;;;;3.90;3.22;;;9.20;91.30;;;;;;5093399;28;20016;-35
2024/03/01 04:57:38;;;;;;;3.47;3.05;;;9.20;91.30;;;;;;5093174;28;20471;-31
2024/03/01 05:00:11;;;;;;;3.63;3.00;;;9.10;91.40;;;;;;5093431;28;20503;-32
2024/03/01 05:02:41;;;;;;;;;;;9.10;91.40;;;;;;5093827;28;20039;-41
2024/03/01 05:05:11;;;;;;;3.13;2.80;;;9.10;91.80;;;;;;5093232;28;20333;-31
2024/03/01 05:07:37;;;;;;;3.13;2.42;;;9.10;91.50;;;;;;5092846;28;20521;-29
2024/03/01 05:10:08;;;;;;;3.22;2.60;;;9.10;91.50;;;;;;5092916;28;20016;-32
2024/03/01 05:12:38;;;;;;;3.05;2.75;;;9.00;91.50;;;;;;5092676;28;20024;-30
2024/03/01 05:15:07;;;;;;;2.90;2.47;;;9.00;91.60;;;;;;5093297;28;20020;-29
2024/03/01 05:17:34;;;;;;;3.50;2.65;;;9.00;91.60;;;;;;5093215;28;20024;-33
2024/03/01 05:20:00;;;;;;;2.70;2.50;;;9.00;91.60;;;;;;5093229;28;20096;-31
2024/03/01 05:22:26;;;;;;;3.03;2.65;;;9.00;91.70;;;;;;5093418;28;20464;-29
2024/03/01 05:24:51;;;;;;;2.65;2.45;;;8.90;91.70;;;;;;5093200;28;20181;-32
2024/03/01 05:27:17;;;;;;;2.88;2.35;;;9.00;91.70;;;;;;5093174;28;20028;-35
2024/03/01 05:29:43;;;;;;;3.03;2.22;;;8.90;91.70;;;;;;5093195;28;20467;-30
2024/03/01 05:32:09;;;;;;;2.53;2.13;;;8.90;91.70;;;;;;5091881;28;20055;-30
2024/03/01 05:34:34;;;;;;;2.90;1.85;;;8.90;91.70;;;;;;5092968;28;20043;-33
2024/03/01 05:37:00;;;;;;;2.22;1.85;;;8.80;91.60;;;;;;5093065;28;20385;-31
2024/03/01 05:39:26;;;;;;;1.85;1.55;;;8.80;91.60;;;;;;5091740;28;20020;-31
2024/03/01 05:41:51;;;;;;;1.63;1.50;;;8.60;91.50;;;;;;5093048;28;20031;-31
2024/03/01 05:44:17;;;;;;;2.38;1.30;;;8.60;91.60;;;;;;5093011;28;20344;-30
2024/03/01 05:46:43;;;;;;;3.45;1.30;;;8.50;91.50;;;;;;5092924;28;20032;-39
2024/03/01 05:49:09;;;;;;;1.10;0.93;;;8.50;91.40;;;;;;5093061;28;20069;-36
2024/03/01 05:51:36;;;;;;;1.80;1.20;;;8.40;91.40;;;;;;5093339;28;20411;-32
2024/03/01 05:54:03;;;;;;;1.67;1.00;;;8.40;91.40;;;;;;5092893;28;20020;-31
2024/03/01 05:56:29;;;;;;;1.60;1.30;;;8.40;91.30;;;;;;5093170;28;20024;-32
2024/03/01 05:58:56;;;;;;;1.98;1.40;;;8.30;91.30;;;;;;5092551;28;20027;-45
2024/03/01 06:01:22;;;;;;;1.63;1.45;;;8.20;91.30;;;;;;5092482;28;20043;-45
2024/03/01 06:03:48;;;;;;;1.60;1.50;;;8.20;91.30;;;;;;5090887;28;20020;-45
2024/03/01 06:06:15;;;;;;;2.53;1.83;;;8.10;91.20;;;;;;5092118;28;20028;-44
2024/03/01 06:08:41;;;;;;;2.03;1.83;;;8.20;91.30;;;;;;5092264;28;20067;-45
2024/03/01 06:11:07;;;;;;;2.85;1.60;;;8.20;91.30;;;;;;5092502;28;20028;-45
2024/03/01 06:13:33;;;;;;;3.03;1.45;;;8.20;91.20;;;;;;5092309;28;20016;-46
2024/03/01 06:15:59;;;;;;;1.65;1.55;;;8.20;91.20;;;;;;5092120;28;20020;-44
2024/03/01 06:18:24;;;;;;;1.60;1.50;;;8.20;91.10;;;;;;5091979;28;20035;-45
2024/03/01 06:20:50;;;;;;;2.20;1.77;;;8.20;91.10;;;;;;5096069;28;20019;-45
2024/03/01 06:23:17;;;;;;;2.65;1.70;;;8.20;91.00;;;;;;5096321;28;20024;-45
2024/03/01 06:25:42;;;;;;;1.90;1.60;;;8.20;91.00;;;;;;5096523;28;20095;-46
2024/03/01 06:28:08;;;;;;;2.50;1.75;;;8.20;91.10;;;;;;5096072;28;20099;-45
2024/03/01 06:30:33;;;;;;;2.63;1.83;;;8.20;91.10;;;;;;5096076;28;20453;-44
2024/03/01 06:32:59;;;;;;;5.07;2.25;;;8.20;90.90;;;;;;5096020;28;20024;-42
2024/03/01 06:35:24;;;;;;;2.97;1.77;;;8.10;90.80;;;;;;5095945;28;20048;-46
2024/03/01 06:37:50;;;;;;;4.47;2.30;;;8.10;91.10;;;;;;5095973;28;20099;-42
2024/03/01 06:40:16;;;;;;;3.00;2.17;;;8.10;90.80;;;;;;5096191;28;20077;-48
2024/03/01 06:42:41;;;;;;;2.45;2.00;;;8.10;90.90;;;;;;5095887;28;20035;-45
2024/03/01 06:45:08;;;;;;;3.72;2.63;;;8.10;90.90;;;;;;5095851;28;20025;-44
2024/03/01 06:47:34;;;;;;;3.08;2.28;;;8.20;90.90;;;;;;5094303;28;20031;-45
2024/03/01 06:50:00;;;;;;;6.05;3.25;;;8.20;90.90;;;;;;5096174;28;20070;-44
2024/03/01 06:52:25;;;;;;;3.88;2.97;;;8.20;90.90;;;;;;5095653;28;20020;-45
2024/03/01 06:54:52;;;;;;;3.13;2.83;;;8.20;91.00;;;;;;5095705;28;20050;-35
2024/03/01 06:57:17;;;;;;;4.82;2.97;;;8.30;91.00;;;;;;5095628;28;20468;-36
2024/03/01 06:59:43;;;;;;;3.85;3.17;;;8.20;90.90;;;;;;5095720;28;20020;-35
2024/03/01 07:02:09;;;;;;;4.28;3.10;;;8.30;91.00;;;;;;5095639;28;20024;-37
2024/03/01 07:04:35;;;;;;;6.25;2.80;;;8.40;91.00;;;;;;5095716;28;20494;-36
2024/03/01 07:07:00;;;;;;;3.40;2.92;;;8.30;90.90;;;;;;5095510;28;20103;-36
2024/03/01 07:09:26;;;;;;;3.35;2.60;;;8.40;91.00;;;;;;5095804;28;20468;-38
2024/03/01 07:11:51;;;;;;;3.35;2.40;;;8.40;91.00;;;;;;5095984;28;20023;-34
2024/03/01 07:14:17;;;;;;;2.95;2.08;;;8.40;90.90;;;;;;5095749;28;20467;-40
2024/03/01 07:16:43;;;;;;;4.47;2.30;;;8.40;90.90;;;;;;5095231;28;20047;-37
2024/03/01 07:19:08;;;;;;;3.20;2.10;;;8.40;90.90;;;;;;5095645;28;20082;-38
2024/03/01 07:21:36;;;;;;;3.45;2.30;;;8.40;90.90;;;;;;5095493;28;20020;-37
2024/03/01 07:24:02;;;;;;;2.88;1.98;;;8.40;90.90;;;;;;5095661;28;20456;-36
2024/03/01 07:26:28;;;;;;;4.05;2.50;;;8.40;90.90;;;;;;5095117;28;20016;-36
2024/03/01 07:28:53;;;;;;;2.60;2.20;;;8.40;90.90;;;;;;5095213;28;20026;-39
2024/03/01 07:31:19;;;;;;;3.88;2.45;;;8.40;90.90;;;;;;5095094;28;20024;-37
2024/03/01 07:33:44;;;;;;;2.78;1.90;;;8.40;90.90;;;;;;5095153;28;20508;-35
2024/03/01 07:36:12;;;;;;;5.47;2.30;;;8.40;90.90;;;;;;5095036;28;20031;-35
2024/03/01 07:38:38;;;;;;;3.58;2.53;;;8.50;90.90;;;;;;5095183;28;20020;-37
2024/03/01 07:41:05;;;;;;;4.72;2.70;;;8.40;91.10;;;;;;5094889;28;20059;-37
2024/03/01 07:43:31;;;;;;;4.22;2.85;;;8.40;90.80;;;;;;5095226;28;20483;-35
2024/03/01 07:45:57;;;;;;;3.40;2.50;;;8.40;90.80;;;;;;5094823;28;20021;-36
2024/03/01 07:48:24;;;;;;;3.70;2.90;;;8.30;90.80;;;;;;5094556;28;20028;-36
2024/03/01 07:50:49;;;;;;;4.30;3.20;;;8.40;90.90;;;;;;5095217;28;20020;-37
2024/03/01 07:53:15;;;;;;;5.53;2.97;;;8.40;90.90;;;;;;5094743;28;20024;-37
2024/03/01 07:55:41;;;;;;;4.45;2.97;;;8.40;90.90;;;;;;5094955;28;20361;-37
2024/03/01 07:58:06;;;;;;;4.60;2.95;;;8.40;90.80;;;;;;5094473;28;20024;-37
2024/03/01 08:00:32;;;;;;;5.63;3.08;;;8.40;90.80;;;;;;5094585;28;20488;-36
2024/03/01 08:03:08;;;;;;;5.40;3.00;;;8.50;90.80;;;;;;5094764;28;20035;-37
2024/03/01 08:05:35;;;;;;;4.38;2.88;;;8.50;90.80;;;;;;5094811;28;20107;-36
2024/03/01 08:08:01;;;;;;;5.03;2.72;;;8.50;90.80;;;;;;5094473;28;20031;-37
2024/03/01 08:10:33;;;;;;;4.40;2.60;;;8.50;90.80;;;;;;5094649;28;20495;-46
2024/03/01 08:13:01;;;;;;;4.80;3.05;;;8.50;90.80;;;;;;5094378;28;20016;-37
2024/03/01 08:15:29;;;;;;;2.78;2.47;;;8.40;90.80;;;;;;5094315;28;20142;-39
2024/03/01 08:17:56;;;;;;;4.05;2.92;;;8.40;90.80;;;;;;5093103;28;20031;-40
2024/03/01 08:20:44;;;;;;;3.50;2.65;;;8.50;90.80;;;;;;5093325;28;20126;-36
2024/03/01 08:23:12;;;;;;;5.25;3.08;;;8.50;90.80;;;;;;5092297;28;20101;-37
2024/03/01 08:25:37;;;;;;;4.93;3.70;;;8.50;90.80;;;;;;5092836;28;20020;-39
2024/03/01 08:28:04;;;;;;;5.35;3.55;;;8.50;90.70;;;;;;5092841;28;20024;-36
2024/03/01 08:30:49;;;;;;;5.50;4.03;;;8.50;90.70;;;;;;5093853;28;20020;-39
2024/03/01 08:33:19;;;;;;;6.93;4.22;;;8.60;90.70;;;;;;5093542;28;20048;-38
2024/03/01 08:35:46;;;;;;;6.25;4.47;;;8.60;90.60;;;;;;5093390;28;20051;-37
2024/03/01 08:38:36;;;;;;;7.35;4.43;;;8.70;90.60;;;;;;5093438;28;20085;-35
2024/03/01 08:41:03;;;;;;;7.57;6.00;;;8.80;90.50;;;;;;5093621;28;20173;-36
2024/03/01 08:43:29;;;;;;;9.88;5.88;;;8.90;90.30;;;;;;5093263;28;20024;-39
2024/03/01 08:46:00;;;;;;;8.32;5.97;;;8.90;90.30;;;;;;5093524;28;20028;-34
2024/03/01 08:48:31;;;;;;;8.05;6.40;;;9.00;90.20;;;;;;5093480;28;20032;-37
2024/03/01 08:50:57;;;;;;;9.15;6.47;;;9.10;90.30;;;;;;5092152;28;20024;-36
2024/03/01 08:53:50;;;;;;;10.02;6.28;;;9.10;90.00;;;;;;5093622;28;20026;-37
2024/03/01 08:56:17;;;;;;;9.60;6.18;;;9.20;90.00;;;;;;5093485;28;20123;-37
2024/03/01 08:58:43;;;;;;;8.25;6.57;;;9.20;90.00;;;;;;5093687;28;20110;-36
2024/03/01 09:01:43;;;;;;;8.25;7.20;;;9.30;89.70;;;;;;5093699;28;20123;-35
2024/03/01 09:04:29;;;;;;;8.38;6.68;;;9.40;89.30;;;;;;5092064;28;20020;-38
2024/03/01 09:07:07;;;;;;;7.85;5.95;;;9.30;89.10;;;;;;5093124;28;20050;-39
2024/03/01 09:09:33;;;;;;;8.50;5.93;;;9.30;89.20;;;;;;5093392;28;20031;-36
2024/03/01 09:11:59;;;;;;;9.07;5.97;;;9.30;89.30;;;;;;5093154;28;20096;-38
2024/03/01 09:14:30;;;;;;;8.90;5.90;;;9.40;89.30;;;;;;5092924;28;20031;-36
2024/03/01 09:17:00;;;;;;;10.13;6.20;;;9.40;89.00;;;;;;5092835;28;20028;-37
2024/03/01 09:19:35;;;;;;;7.82;6.18;;;9.40;88.80;;;;;;5093084;28;20028;-37
2024/03/01 09:22:01;;;;;;;7.85;6.07;;;9.40;88.80;;;;;;5093272;28;20028;-36
2024/03/01 09:24:27;;;;;;;7.32;5.47;;;9.40;88.80;;;;;;5093223;28;20034;-37
2024/03/01 09:26:55;;;;;;;7.80;6.03;;;9.40;88.90;;;;;;5092827;28;20123;-37
2024/03/01 09:29:34;;;;;;;9.65;5.85;;;9.40;88.90;;;;;;5093155;28;20020;-36
2024/03/01 09:32:01;;;;;;;8.07;6.00;;;9.40;88.70;;;;;;5093269;28;20086;-36
2024/03/01 09:34:34;;;;;;;10.88;5.90;;;9.40;88.60;;;;;;5092780;28;20039;-37
2024/03/01 09:37:00;;;;;;;8.90;5.22;;;9.50;88.30;;;;;;5092877;28;20427;-40
2024/03/01 09:39:25;;;;;;;8.13;5.38;;;9.50;88.10;;;;;;5092681;28;20032;-37
2024/03/01 09:42:17;;;;;;;6.88;5.13;;;9.50;88.30;;;;;;5093121;28;20085;-37
2024/03/01 09:45:14;;;;;;;6.40;4.63;;;9.50;88.30;;;;;;5092769;28;20464;-36
2024/03/01 09:47:58;;;;;;;5.85;4.20;;;9.50;88.50;;;;;;5092308;28;20028;-35
2024/03/01 09:50:24;;;;;;;;;;;9.50;88.90;;;;;;5092932;28;20035;-36
2024/03/01 09:53:24;;;;;;;6.28;4.72;;;9.40;89.10;;;;;;5091197;28;19904;-39
2024/03/01 09:56:14;;;;;;;6.43;4.15;;;9.40;89.00;;;;;;5092133;28;20047;-37
2024/03/01 09:58:55;;;;;;;5.38;3.30;;;9.60;88.90;;;;;;5091064;28;20019;-36
2024/03/01 10:01:43;;;;;;;4.70;3.83;;;9.70;89.30;;;;;;5092429;28;20053;-36
2024/03/01 10:04:42;;;;;;;6.05;4.28;;;9.70;89.30;;;;;;5092197;28;20020;-39
2024/03/01 10:07:13;;;;;;;6.22;4.53;;;9.80;89.10;;;;;;5091501;28;20491;-38
2024/03/01 10:10:00;;;;;;;5.93;4.18;;;9.90;88.50;;;;;;5092334;28;20024;-37
2024/03/01 10:12:51;;;;;;;4.35;3.10;;;10.00;88.30;;;;;;5092218;28;20029;-35
2024/03/01 10:15:30;;;;;;;5.40;3.30;;;10.10;88.50;;;;;;5092035;28;20116;-37
2024/03/01 10:18:16;;;;;;;6.53;3.17;;;10.20;88.00;;;;;;5091980;28;20039;-35
2024/03/01 10:20:59;;;;;;;4.32;3.28;;;10.20;87.60;;;;;;5092170;28;20051;-37
2024/03/01 10:23:57;;;;;;;6.18;3.20;;;10.10;87.70;;;;;;5092262;28;20028;-37
2024/03/01 10:26:31;;;;;;;4.60;2.80;;;10.10;88.30;;;;;;5092037;28;20432;-35
2024/03/01 10:29:02;;;;;;;6.13;2.90;;;10.10;88.10;;;;;;5092396;28;20453;-38
2024/03/01 10:32:04;;;;;;;6.30;2.65;;;10.10;87.90;;;;;;5092305;28;20024;-36
2024/03/01 10:34:40;;;;;;;3.28;2.28;;;10.10;87.80;;;;;;5091203;28;20102;-36
2024/03/01 10:37:39;;;;;;;3.65;2.25;;;10.10;87.50;;;;;;5091851;28;20024;-37
2024/03/01 10:40:05;;;;;;;4.43;2.42;;;10.10;87.40;;;;;;5091933;28;20556;-36
2024/03/01 10:42:35;;;;;;;4.57;2.33;;;10.20;87.30;;;;;;5090762;28;20024;-38
2024/03/01 10:45:20;;;;;;;5.47;3.20;;;10.20;87.80;;;;;;5091925;28;20107;-36
2024/03/01 10:47:47;;;;;;;6.00;2.88;;;10.20;87.70;;;;;;5091783;28;20372;-37
2024/03/01 10:50:13;;;;;;;4.20;2.58;;;10.20;87.00;;;;;;5091902;28;20021;-39
2024/03/01 10:52:44;;;;;;;3.67;2.30;;;10.30;87.30;;;;;;5091869;28;20376;-37
2024/03/01 10:55:20;;;;;;;4.65;2.25;;;10.30;87.30;;;;;;5092172;28;20016;-37
2024/03/01 10:58:06;;;;;;;4.03;2.45;;;10.30;86.80;;;;;;5091976;28;20036;-36
2024/03/01 11:00:37;;;;;;;6.40;2.55;;;10.40;86.50;;;;;;5091688;28;20031;-36
2024/03/01 11:03:24;;;;;;;6.30;2.90;;;10.50;88.40;;;;;;5091626;28;20024;-34
2024/03/01 11:06:34;;;;;;;2.88;1.90;;;10.50;87.20;;;;;;5092210;28;20058;-38
2024/03/01 11:09:12;;;;;;;5.70;2.50;;;10.70;87.30;;;;;;5092992;28;20500;-37
2024/03/01 11:12:03;;;;;;;3.22;2.25;;;10.70;87.10;;;;;;5095193;28;20388;-38
2024/03/01 11:14:32;;;;;;;5.70;2.05;;;10.70;86.50;;;;;;5095365;28;20020;-43
2024/03/01 11:17:00;;;;;;;2.75;1.90;;;10.80;86.80;;;;;;5093878;28;20690;-37
2024/03/01 11:19:28;;;;;;;4.28;1.55;;;10.90;87.30;;;;;;5095271;28;20024;-37
2024/03/01 11:22:08;;;;;;;3.33;2.13;;;10.90;87.20;;;;;;5095435;28;20020;-35
2024/03/01 11:24:40;;;;;;;2.90;2.20;;;10.80;87.10;;;;;;5093888;28;20055;-36
2024/03/01 11:27:08;;;;;;;2.58;2.00;;;10.80;87.20;;;;;;5095078;28;20028;-35
2024/03/01 11:29:41;;;;;;;3.53;2.28;;;10.80;87.10;;;;;;5094966;28;20016;-36
2024/03/01 11:32:17;;;;;;;3.65;2.40;;;10.80;87.60;;;;;;5095147;28;20031;-39
2024/03/01 11:35:06;;;;;;;3.65;2.20;;;10.80;87.00;;;;;;5094682;28;20119;-37
2024/03/01 11:37:41;;;;;;;3.25;1.92;;;10.80;86.40;;;;;;5095222;28;20111;-36
2024/03/01 11:40:23;;;;;;;4.45;2.15;;;10.80;86.40;;;;;;5094942;28;20031;-36
2024/03/01 11:43:19;;;;;;;2.92;1.73;;;10.90;86.60;;;;;;5093574;28;20532;-36
2024/03/01 11:46:19;;;;;;;4.13;1.92;;;10.90;87.10;;;;;;5094779;28;20028;-38
2024/03/01 11:49:05;;;;;;;4.70;2.30;;;10.90;86.50;;;;;;5094997;28;20576;-40
2024/03/01 11:51:52;;;;;;;3.53;1.85;;;10.90;86.30;;;;;;5094715;28;20058;-38
2024/03/01 11:54:42;;;;;;;5.13;1.88;;;11.00;86.20;;;;;;5094533;28;20020;-36
2024/03/01 11:57:34;;;;;;;2.70;1.45;;;11.00;86.00;;;;;;5094621;28;20077;-37
2024/03/01 12:00:26;;;;;;;3.75;1.60;;;11.00;87.00;;;;;;5094583;28;20031;-37
2024/03/01 12:03:30;;;;;;;2.08;1.15;;;11.00;86.90;;;;;;5094113;28;20043;-39
2024/03/01 12:06:04;;;;;;;2.03;1.40;;;11.10;87.70;;;;;;5094345;28;20024;-38
2024/03/01 12:08:44;;;;;;;2.03;1.20;;;11.00;87.70;;;;;;5094503;28;20028;-37
2024/03/01 12:11:41;;;;;;;1.63;1.15;;;11.00;88.70;;;;;;5094629;28;20070;-37
2024/03/01 12:14:13;;;;;;;3.22;1.30;;;11.00;89.20;;;;;;5094281;28;20520;-37
2024/03/01 12:16:45;;;;;;;2.45;1.23;;;11.10;89.10;;;;;;5093324;28;20061;-38
2024/03/01 12:19:21;;;;;;;1.85;1.10;;;11.10;88.30;;;;;;5094134;28;20024;-37
2024/03/01 12:22:04;;;;;;;14.27;1.65;;;11.10;87.50;;;;;;5094264;28;20073;-37
2024/03/01 12:24:35;;;;;;;2.58;1.33;;;11.20;88.00;;;;;;5094167;28;20027;-38
2024/03/01 12:27:14;;;;;;;3.30;1.40;;;11.20;87.80;;;;;;5094015;28;20016;-36
2024/03/01 12:29:58;;;;;;;1.60;0.90;;;11.20;87.10;;;;;;5094338;28;20513;-38
2024/03/01 12:32:58;;;;;;;1.20;0.88;;;11.30;87.10;;;;;;5093805;28;20111;-36
2024/03/01 12:35:59;;;;;;;2.22;1.30;;;11.30;88.20;;;;;;5093510;28;20118;-36
2024/03/01 12:38:39;;;;;;;4.32;1.15;;;11.40;87.70;;;;;;5093254;28;20043;-35
2024/03/01 12:41:24;;;;;;;2.15;1.00;;;11.40;87.00;;;;;;5094031;28;20472;-37
2024/03/01 12:44:18;;;;;;;1.92;1.10;;;11.40;87.80;;;;;;5092244;28;20030;-36
2024/03/01 12:47:16;;;;;;;1.90;0.88;;;11.40;87.00;;;;;;5093885;28;20024;-36
2024/03/01 12:50:03;;;;;;;1.30;1.00;;;11.40;86.40;;;;;;5092210;28;20075;-39
2024/03/01 12:52:40;;;;;;;14.40;1.75;;;11.40;86.60;;;;;;5093478;28;20520;-37
2024/03/01 12:55:18;;;;;;;2.85;1.20;;;11.40;87.80;;;;;;5093491;28;20032;-35
2024/03/01 12:58:14;;;;;;;1.42;1.00;;;11.40;87.00;;;;;;5093442;28;20425;-36
2024/03/01 13:01:07;;;;;;;1.83;0.95;;;11.40;86.30;;;;;;5093778;28;20376;-38
2024/03/01 13:03:42;;;;;;;;;;;11.40;87.40;;;;;;5093651;28;20712;-44
2024/03/01 13:06:09;;;;;;;2.83;0.80;;;11.40;87.00;;;;;;5093143;28;19939;-37
2024/03/01 13:08:49;;;;;;;1.10;1.00;;;11.40;86.70;;;;;;5093269;28;20470;-35
2024/03/01 13:11:20;;;;;;;3.35;0.82;;;11.50;86.10;;;;;;5093600;28;20369;-36
2024/03/01 13:14:07;;;;;;;2.67;1.08;;;11.50;85.90;;;;;;5093079;28;20107;-35